Terminal Aerodrome Forecast
Issued by NWS

Home | Current Version | Previous Version | Text Only | Print | Product List | Glossary On
Versions: 1 2 3 4 5 6 7 8 9 10 11 12 13 14 15 16 17 18 19 20
561
FTUS41 KPBZ 090527
TAFBVI
TAF
KBVI 090527Z 0906/1006 26011G19KT P6SM -SHSN OVC025
     FM091400 26010G18KT 6SM -SHSN OVC025
     FM092200 27010G18KT P6SM VCSH OVC025
      AMD NOT SKED=

USA.gov is the U.S. government's official web portal to all federal, state and local government web resources and services.